Thunder radar more information blitzortung!


Radar de pluja more information rain snow radar


Visita la nostra xarxa de llocs de meteo:

Template documentation
and downloads

And another site



No particular awareness of the weather is required.    There are no Weather-warnings

Pagina Historial Weather Underground text

Diari Resum Juny 21, 2017 Unitats:  Tant    Imperial   Mètric
« Previous Dia
SegĂźent Dia »
Diari Setmana Mensual Anual Personalitzada
  Maxima: Minima: Media:
Temperatura: 95.2 °F /  35.1 °C 69.6 °F /  20.9 °C 83.7 °F /  28.7 °C
Punt de rosada: 64.2 °F /  17.9 °C 55.6 °F /  13.1 °C 60.6 °F /  15.9 °C
Humitat: 61 % 35 % 47 %
Wind Speed: 12.7 mph /  20.4 km/h - 4.3 mph /  7 km/h
RĂ fegues de vent: 12.7 mph /  20.4 km/h - -
Vent:- - SW
Pression baro: 30 in /  1015.8 hPa 29.9 in /  1012.8 hPa -
Precipitacions: 0 in /  0.0 mm    
Historical Graphs
 
 
Dades de taula per Juny 21, 2017
Temps Temperatura Punt de rosada Pression baro Vent Wind Speed RĂ fegues de vent Humitat Rainfall Rate (Hourly)
00:04 74.3 °F /  23.5 °C 59 °F /  15.0 °C 30 in /  1015.8 hPa West 3.5 mph /  5.6 km/h 3.5 mph /  5.6 km/h 59 % 0 in /  0.0 mm
00:05 71.6 °F /  22.0 °C 57 °F /  13.9 °C 29.9 in /  1013.8 hPa WSW 2 mph /  3.2 km/h 4 mph /  6.4 km/h 60 % 0 in /  0.0 mm
00:09 74.1 °F /  23.4 °C 58.8 °F /  14.9 °C 30 in /  1015.8 hPa WSW 4.6 mph /  7.4 km/h 4.6 mph /  7.4 km/h 59 % 0 in /  0.0 mm
00:15 71.6 °F /  22.0 °C 56.5 °F /  13.6 °C 29.9 in /  1013.8 hPa West 2 mph /  3.2 km/h 2 mph /  3.2 km/h 59 % 0 in /  0.0 mm
00:25 71.6 °F /  22.0 °C 55.9 °F /  13.3 °C 29.9 in /  1013.8 hPa West 2 mph /  3.2 km/h 2 mph /  3.2 km/h 58 % 0 in /  0.0 mm
00:35 71.4 °F /  21.9 °C 56.3 °F /  13.5 °C 29.9 in /  1013.8 hPa Calm   2 mph /  3.2 km/h 59 % 0 in /  0.0 mm
00:45 71.1 °F /  21.7 °C 55.9 °F /  13.3 °C 29.9 in /  1013.8 hPa WNW 1 mph /  1.6 km/h 2 mph /  3.2 km/h 59 % 0 in /  0.0 mm
01:05 70.9 °F /  21.6 °C 55.8 °F /  13.2 °C 29.9 in /  1013.8 hPa Calm   2 mph /  3.2 km/h 59 % 0 in /  0.0 mm
01:15 70.9 °F /  21.6 °C 56.3 °F /  13.5 °C 30 in /  1014.8 hPa NW 1 mph /  1.6 km/h 2 mph /  3.2 km/h 60 % 0 in /  0.0 mm
01:25 70.2 °F /  21.2 °C 55.6 °F /  13.1 °C 29.9 in /  1013.8 hPa Calm   1 mph /  1.6 km/h 60 % 0 in /  0.0 mm
01:35 70 °F /  21.1 °C 55.6 °F /  13.1 °C 29.9 in /  1013.8 hPa North 2 mph /  3.2 km/h 2 mph /  3.2 km/h 60 % 0 in /  0.0 mm
01:45 69.6 °F /  20.9 °C 55.6 °F /  13.1 °C 29.9 in /  1013.8 hPa NE 1 mph /  1.6 km/h 2 mph /  3.2 km/h 61 % 0 in /  0.0 mm
01:55 69.6 °F /  20.9 °C 55.6 °F /  13.1 °C 30 in /  1014.8 hPa NNE 1 mph /  1.6 km/h 1 mph /  1.6 km/h 61 % 0 in /  0.0 mm
02:05 70 °F /  21.1 °C 55.9 °F /  13.3 °C 30 in /  1014.8 hPa North 2 mph /  3.2 km/h 2 mph /  3.2 km/h 61 % 0 in /  0.0 mm
02:15 70.2 °F /  21.2 °C 56.1 °F /  13.4 °C 29.9 in /  1013.8 hPa NNE 1 mph /  1.6 km/h 3 mph /  4.8 km/h 61 % 0 in /  0.0 mm
02:25 70.7 °F /  21.5 °C 56.7 °F /  13.7 °C 30 in /  1014.8 hPa North 1 mph /  1.6 km/h 1 mph /  1.6 km/h 61 % 0 in /  0.0 mm
02:35 70 °F /  21.1 °C 55.9 °F /  13.3 °C 30 in /  1014.8 hPa West 1 mph /  1.6 km/h 2 mph /  3.2 km/h 61 % 0 in /  0.0 mm
02:45 71.6 °F /  22.0 °C 57 °F /  13.9 °C 30 in /  1014.8 hPa West 1 mph /  1.6 km/h 3 mph /  4.8 km/h 60 % 0 in /  0.0 mm
02:55 71.8 °F /  22.1 °C 56.7 °F /  13.7 °C 30 in /  1014.8 hPa NE 2 mph /  3.2 km/h 3 mph /  4.8 km/h 59 % 0 in /  0.0 mm
03:05 72.7 °F /  22.6 °C 57.6 °F /  14.2 °C 30 in /  1014.8 hPa Calm   2 mph /  3.2 km/h 59 % 0 in /  0.0 mm
03:15 73.8 °F /  23.2 °C 58.1 °F /  14.5 °C 30 in /  1014.8 hPa Calm   3 mph /  4.8 km/h 58 % 0 in /  0.0 mm
03:25 74.3 °F /  23.5 °C 58.1 °F /  14.5 °C 30 in /  1014.8 hPa NE 1 mph /  1.6 km/h 2 mph /  3.2 km/h 57 % 0 in /  0.0 mm
03:35 75 °F /  23.9 °C 58.8 °F /  14.9 °C 30 in /  1014.8 hPa ENE 1 mph /  1.6 km/h 2 mph /  3.2 km/h 57 % 0 in /  0.0 mm
03:45 75.2 °F /  24.0 °C 57.9 °F /  14.4 °C 30 in /  1014.8 hPa Calm   3 mph /  4.8 km/h 55 % 0 in /  0.0 mm
03:55 76.6 °F /  24.8 °C 59.4 °F /  15.2 °C 30 in /  1014.8 hPa NNE 1 mph /  1.6 km/h 2 mph /  3.2 km/h 55 % 0 in /  0.0 mm
04:05 76.5 °F /  24.7 °C 58.6 °F /  14.8 °C 30 in /  1014.8 hPa SSW 2 mph /  3.2 km/h 3 mph /  4.8 km/h 54 % 0 in /  0.0 mm
04:15 76.8 °F /  24.9 °C 58.8 °F /  14.9 °C 30 in /  1014.8 hPa SW 1 mph /  1.6 km/h 3 mph /  4.8 km/h 54 % 0 in /  0.0 mm
04:25 78.6 °F /  25.9 °C 59.5 °F /  15.3 °C 30 in /  1014.8 hPa SSW 1 mph /  1.6 km/h 3 mph /  4.8 km/h 52 % 0 in /  0.0 mm
04:35 79.5 °F /  26.4 °C 59.7 °F /  15.4 °C 30 in /  1014.8 hPa SSE 2 mph /  3.2 km/h 2 mph /  3.2 km/h 51 % 0 in /  0.0 mm
04:45 79.5 °F /  26.4 °C 59.7 °F /  15.4 °C 30 in /  1014.8 hPa SSE 2 mph /  3.2 km/h 3 mph /  4.8 km/h 51 % 0 in /  0.0 mm
04:55 80.6 °F /  27.0 °C 60.3 °F /  15.7 °C 30 in /  1014.8 hPa ESE 1 mph /  1.6 km/h 2 mph /  3.2 km/h 50 % 0 in /  0.0 mm
05:05 80.6 °F /  27.0 °C 60.3 °F /  15.7 °C 30 in /  1014.8 hPa NW 2 mph /  3.2 km/h 4 mph /  6.4 km/h 50 % 0 in /  0.0 mm
05:15 81.9 °F /  27.7 °C 60.8 °F /  16.0 °C 30 in /  1014.8 hPa SW 2 mph /  3.2 km/h 2 mph /  3.2 km/h 49 % 0 in /  0.0 mm
05:25 82.4 °F /  28.0 °C 60.6 °F /  15.9 °C 30 in /  1014.8 hPa Calm   2 mph /  3.2 km/h 48 % 0 in /  0.0 mm
05:35 84.2 °F /  29.0 °C 61.9 °F /  16.6 °C 30 in /  1014.8 hPa SE 1 mph /  1.6 km/h 2 mph /  3.2 km/h 47 % 0 in /  0.0 mm
05:45 84.6 °F /  29.2 °C 61.5 °F /  16.4 °C 30 in /  1014.8 hPa SSW 1 mph /  1.6 km/h 3 mph /  4.8 km/h 46 % 0 in /  0.0 mm
10:47 85.8 °F /  29.9 °C 62.1 °F /  16.7 °C 30 in /  1014.8 hPa East 2.6 mph /  4.2 km/h 2.6 mph /  4.2 km/h 45 % 0 in /  0.0 mm
10:52 86.2 °F /  30.1 °C 62.2 °F /  16.8 °C 30 in /  1014.8 hPa SW 2.3 mph /  3.7 km/h 2.3 mph /  3.7 km/h 45 % 0 in /  0.0 mm
10:57 86 °F /  30.0 °C 62.2 °F /  16.8 °C 30 in /  1014.8 hPa SW 2.3 mph /  3.7 km/h 2.3 mph /  3.7 km/h 45 % 0 in /  0.0 mm
11:02 86.5 °F /  30.3 °C 62.1 °F /  16.7 °C 30 in /  1014.8 hPa SSE 3.5 mph /  5.6 km/h 3.5 mph /  5.6 km/h 44 % 0 in /  0.0 mm
11:07 86.9 °F /  30.5 °C 62.4 °F /  16.9 °C 30 in /  1014.8 hPa SW 2.3 mph /  3.7 km/h   44 % 0 in /  0.0 mm
11:12 87.4 °F /  30.8 °C 62.8 °F /  17.1 °C 30 in /  1014.8 hPa SSW 2.4 mph /  3.9 km/h 2.4 mph /  3.9 km/h 44 % 0 in /  0.0 mm
11:17 87.4 °F /  30.8 °C 62.8 °F /  17.1 °C 30 in /  1014.8 hPa SSW 3.5 mph /  5.6 km/h 3.5 mph /  5.6 km/h 44 % 0 in /  0.0 mm
11:22 87.3 °F /  30.7 °C 62.1 °F /  16.7 °C 30 in /  1014.8 hPa SW 4.6 mph /  7.4 km/h 4.6 mph /  7.4 km/h 43 % 0 in /  0.0 mm
11:27 87.6 °F /  30.9 °C 62.4 °F /  16.9 °C 30 in /  1014.8 hPa WSW 3.5 mph /  5.6 km/h 3.5 mph /  5.6 km/h 43 % 0 in /  0.0 mm
11:32 87.4 °F /  30.8 °C 61.5 °F /  16.4 °C 30 in /  1014.8 hPa ENE 3.5 mph /  5.6 km/h 3.5 mph /  5.6 km/h 42 % 0 in /  0.0 mm
11:37 87.4 °F /  30.8 °C 61.5 °F /  16.4 °C 30 in /  1014.8 hPa SW 5.8 mph /  9.3 km/h 5.8 mph /  9.3 km/h 42 % 0 in /  0.0 mm
11:42 87.3 °F /  30.7 °C 61.3 °F /  16.3 °C 30 in /  1014.8 hPa SSW 4.6 mph /  7.4 km/h 4.6 mph /  7.4 km/h 42 % 0 in /  0.0 mm
11:47 88.2 °F /  31.2 °C 61.5 °F /  16.4 °C 30 in /  1014.8 hPa WSW 3.5 mph /  5.6 km/h 3.5 mph /  5.6 km/h 41 % 0 in /  0.0 mm
11:52 89.2 °F /  31.8 °C 62.4 °F /  16.9 °C 30 in /  1014.8 hPa SW 3.5 mph /  5.6 km/h 3.5 mph /  5.6 km/h 41 % 0 in /  0.0 mm
11:57 90.3 °F /  32.4 °C 63.3 °F /  17.4 °C 30 in /  1014.8 hPa WNW 4.6 mph /  7.4 km/h 4.6 mph /  7.4 km/h 41 % 0 in /  0.0 mm
12:02 90.3 °F /  32.4 °C 62.8 °F /  17.1 °C 30 in /  1014.8 hPa WSW 5.8 mph /  9.3 km/h 5.8 mph /  9.3 km/h 40 % 0 in /  0.0 mm
12:07 90.1 °F /  32.3 °C 61.9 °F /  16.6 °C 30 in /  1014.8 hPa SW 4 mph /  6.4 km/h 4 mph /  6.4 km/h 39 % 0 in /  0.0 mm
12:12 90.7 °F /  32.6 °C 62.2 °F /  16.8 °C 30 in /  1014.8 hPa SW 2.3 mph /  3.7 km/h 2.3 mph /  3.7 km/h 39 % 0 in /  0.0 mm
12:17 90.5 °F /  32.5 °C 61.3 °F /  16.3 °C 30 in /  1014.8 hPa SSE 4.6 mph /  7.4 km/h 4.6 mph /  7.4 km/h 38 % 0 in /  0.0 mm
12:22 91.6 °F /  33.1 °C 61.5 °F /  16.4 °C 30 in /  1014.8 hPa SE 5.6 mph /  9.0 km/h 5.6 mph /  9.0 km/h 37 % 0 in /  0.0 mm
12:27 91.6 °F /  33.1 °C 61.5 °F /  16.4 °C 30 in /  1014.8 hPa East 3.5 mph /  5.6 km/h 3.5 mph /  5.6 km/h 37 % 0 in /  0.0 mm
12:32 93 °F /  33.9 °C 63 °F /  17.2 °C 29.9 in /  1013.8 hPa WSW 4.6 mph /  7.4 km/h 4.6 mph /  7.4 km/h 37 % 0 in /  0.0 mm
12:37 93.6 °F /  34.2 °C 63.3 °F /  17.4 °C 29.9 in /  1013.8 hPa West 5.8 mph /  9.3 km/h 5.8 mph /  9.3 km/h 37 % 0 in /  0.0 mm
12:42 93.4 °F /  34.1 °C 63.1 °F /  17.3 °C 29.9 in /  1013.8 hPa West 4.6 mph /  7.4 km/h 4.6 mph /  7.4 km/h 37 % 0 in /  0.0 mm
12:47 92.7 °F /  33.7 °C 61.9 °F /  16.6 °C 30 in /  1014.8 hPa WSW 6.9 mph /  11.1 km/h 6.9 mph /  11.1 km/h 36 % 0 in /  0.0 mm
12:52 93.7 °F /  34.3 °C 62.1 °F /  16.7 °C 30 in /  1014.8 hPa ESE 4.6 mph /  7.4 km/h 4.6 mph /  7.4 km/h 35 % 0 in /  0.0 mm
12:57 94.5 °F /  34.7 °C 63.3 °F /  17.4 °C 30 in /  1014.8 hPa SW 2.9 mph /  4.7 km/h 2.9 mph /  4.7 km/h 36 % 0 in /  0.0 mm
13:02 94.6 °F /  34.8 °C 64.2 °F /  17.9 °C 29.9 in /  1013.8 hPa SW 3.5 mph /  5.6 km/h 3.5 mph /  5.6 km/h 37 % 0 in /  0.0 mm
13:08 93.6 °F /  34.2 °C 63.3 °F /  17.4 °C 29.9 in /  1013.8 hPa SSW 4.6 mph /  7.4 km/h 4.6 mph /  7.4 km/h 37 % 0 in /  0.0 mm
13:13 95 °F /  35.0 °C 63.1 °F /  17.3 °C 29.9 in /  1013.8 hPa SW 4.7 mph /  7.6 km/h 4.7 mph /  7.6 km/h 35 % 0 in /  0.0 mm
13:18 94.5 °F /  34.7 °C 63.3 °F /  17.4 °C 30 in /  1014.8 hPa SSW 4.6 mph /  7.4 km/h 4.6 mph /  7.4 km/h 36 % 0 in /  0.0 mm
13:23 94.1 °F /  34.5 °C 63.9 °F /  17.7 °C 30 in /  1014.8 hPa SW 4.7 mph /  7.6 km/h 4.7 mph /  7.6 km/h 37 % 0 in /  0.0 mm
13:28 94.5 °F /  34.7 °C 64.2 °F /  17.9 °C 30 in /  1014.8 hPa WSW 8.1 mph /  13.0 km/h 8.1 mph /  13.0 km/h 37 % 0 in /  0.0 mm
13:33 94.1 °F /  34.5 °C 63.9 °F /  17.7 °C 29.9 in /  1013.8 hPa SW 4.6 mph /  7.4 km/h 4.6 mph /  7.4 km/h 37 % 0 in /  0.0 mm
13:38 95.2 °F /  35.1 °C 64 °F /  17.8 °C 29.9 in /  1013.8 hPa SW 5.8 mph /  9.3 km/h 5.8 mph /  9.3 km/h 36 % 0 in /  0.0 mm
13:43 95.2 °F /  35.1 °C 64 °F /  17.8 °C 29.9 in /  1013.8 hPa SSW 3.1 mph /  5.0 km/h 3.1 mph /  5.0 km/h 36 % 0 in /  0.0 mm
13:48 93.9 °F /  34.4 °C 63.7 °F /  17.6 °C 29.9 in /  1013.8 hPa SSW 9.2 mph /  14.8 km/h 9.2 mph /  14.8 km/h 37 % 0 in /  0.0 mm
13:53 92.8 °F /  33.8 °C 63.5 °F /  17.5 °C 29.9 in /  1013.8 hPa SW 12.7 mph /  20.4 km/h 12.7 mph /  20.4 km/h 38 % 0 in /  0.0 mm
13:58 93.2 °F /  34.0 °C 63.9 °F /  17.7 °C 29.9 in /  1013.8 hPa SW 9.2 mph /  14.8 km/h 9.2 mph /  14.8 km/h 38 % 0 in /  0.0 mm
14:03 92.8 °F /  33.8 °C 63.5 °F /  17.5 °C 29.9 in /  1013.8 hPa WSW 5.8 mph /  9.3 km/h 5.8 mph /  9.3 km/h 38 % 0 in /  0.0 mm
14:08 91.9 °F /  33.3 °C 62.8 °F /  17.1 °C 29.9 in /  1013.8 hPa SW 8.1 mph /  13.0 km/h 8.1 mph /  13.0 km/h 38 % 0 in /  0.0 mm
14:13 92.3 °F /  33.5 °C 63 °F /  17.2 °C 29.9 in /  1013.8 hPa WNW 6.9 mph /  11.1 km/h 6.9 mph /  11.1 km/h 38 % 0 in /  0.0 mm
14:18 92.5 °F /  33.6 °C 63.1 °F /  17.3 °C 29.9 in /  1013.8 hPa SW 8.1 mph /  13.0 km/h 8.1 mph /  13.0 km/h 38 % 0 in /  0.0 mm
14:23 92.5 °F /  33.6 °C 63.1 °F /  17.3 °C 29.9 in /  1013.8 hPa SW 6.9 mph /  11.1 km/h 6.9 mph /  11.1 km/h 38 % 0 in /  0.0 mm
14:28 92.1 °F /  33.4 °C 63 °F /  17.2 °C 29.9 in /  1013.8 hPa SSW 10.4 mph /  16.7 km/h 10.4 mph /  16.7 km/h 38 % 0 in /  0.0 mm
14:33 92.1 °F /  33.4 °C 63 °F /  17.2 °C 29.9 in /  1012.8 hPa WSW 9.2 mph /  14.8 km/h 9.2 mph /  14.8 km/h 38 % 0 in /  0.0 mm
14:38 91.9 °F /  33.3 °C 62.8 °F /  17.1 °C 29.9 in /  1012.8 hPa West 8.1 mph /  13.0 km/h 8.1 mph /  13.0 km/h 38 % 0 in /  0.0 mm
14:43 91.9 °F /  33.3 °C 62.8 °F /  17.1 °C 29.9 in /  1012.8 hPa SSW 10.4 mph /  16.7 km/h 10.4 mph /  16.7 km/h 38 % 0 in /  0.0 mm
14:48 92.1 °F /  33.4 °C 63 °F /  17.2 °C 29.9 in /  1012.8 hPa South 6.9 mph /  11.1 km/h 6.9 mph /  11.1 km/h 38 % 0 in /  0.0 mm
14:53 92.5 °F /  33.6 °C 63.1 °F /  17.3 °C 29.9 in /  1012.8 hPa SSW 9.8 mph /  15.8 km/h 9.8 mph /  15.8 km/h 38 % 0 in /  0.0 mm
14:58 91.9 °F /  33.3 °C 62.8 °F /  17.1 °C 29.9 in /  1012.8 hPa SW 6.9 mph /  11.1 km/h 6.9 mph /  11.1 km/h 38 % 0 in /  0.0 mm
15:03 91.9 °F /  33.3 °C 62.8 °F /  17.1 °C 29.9 in /  1012.8 hPa SW 6.7 mph /  10.8 km/h 6.7 mph /  10.8 km/h 38 % 0 in /  0.0 mm
15:08 91.6 °F /  33.1 °C 62.4 °F /  16.9 °C 29.9 in /  1012.8 hPa SW 10.2 mph /  16.4 km/h 10.2 mph /  16.4 km/h 38 % 0 in /  0.0 mm
15:13 92.5 °F /  33.6 °C 63.1 °F /  17.3 °C 29.9 in /  1012.8 hPa SW 8.1 mph /  13.0 km/h 8.1 mph /  13.0 km/h 38 % 0 in /  0.0 mm
15:18 92.8 °F /  33.8 °C 62.8 °F /  17.1 °C 29.9 in /  1012.8 hPa SSW 6.9 mph /  11.1 km/h 6.9 mph /  11.1 km/h 37 % 0 in /  0.0 mm
15:23 93 °F /  33.9 °C 63 °F /  17.2 °C 29.9 in /  1012.8 hPa SW 4.6 mph /  7.4 km/h 4.6 mph /  7.4 km/h 37 % 0 in /  0.0 mm
15:28 92.7 °F /  33.7 °C 62.6 °F /  17.0 °C 29.9 in /  1012.8 hPa SSE 10.4 mph /  16.7 km/h 10.4 mph /  16.7 km/h 37 % 0 in /  0.0 mm
15:33 93 °F /  33.9 °C 63 °F /  17.2 °C 29.9 in /  1012.8 hPa South 8.1 mph /  13.0 km/h 8.1 mph /  13.0 km/h 37 % 0 in /  0.0 mm
15:38 92.8 °F /  33.8 °C 62.8 °F /  17.1 °C 29.9 in /  1012.8 hPa SW 10.4 mph /  16.7 km/h 10.4 mph /  16.7 km/h 37 % 0 in /  0.0 mm
15:43 93 °F /  33.9 °C 63 °F /  17.2 °C 29.9 in /  1012.8 hPa WSW 6 mph /  9.7 km/h 6 mph /  9.7 km/h 37 % 0 in /  0.0 mm
15:48 94.1 °F /  34.5 °C 63.9 °F /  17.7 °C 29.9 in /  1013.8 hPa WSW 5.8 mph /  9.3 km/h 5.8 mph /  9.3 km/h 37 % 0 in /  0.0 mm
15:53 93.7 °F /  34.3 °C 63.5 °F /  17.5 °C 29.9 in /  1013.8 hPa SW 10 mph /  16.1 km/h 10 mph /  16.1 km/h 37 % 0 in /  0.0 mm
15:58 92.5 °F /  33.6 °C 62.4 °F /  16.9 °C 29.9 in /  1013.8 hPa SW 5.9 mph /  9.5 km/h 5.9 mph /  9.5 km/h 37 % 0 in /  0.0 mm
16:03 92.5 °F /  33.6 °C 62.4 °F /  16.9 °C 29.9 in /  1012.8 hPa South 8.1 mph /  13.0 km/h 8.1 mph /  13.0 km/h 37 % 0 in /  0.0 mm
16:08 93.2 °F /  34.0 °C 63.1 °F /  17.3 °C 29.9 in /  1012.8 hPa SSW 5.8 mph /  9.3 km/h 5.8 mph /  9.3 km/h 37 % 0 in /  0.0 mm
16:13 92.7 °F /  33.7 °C 62.6 °F /  17.0 °C 29.9 in /  1012.8 hPa South 8.1 mph /  13.0 km/h 8.1 mph /  13.0 km/h 37 % 0 in /  0.0 mm
16:14 92.5 °F /  33.6 °C 62.4 °F /  16.9 °C 29.9 in /  1013.8 hPa West 8.1 mph /  13.0 km/h 8.1 mph /  13.0 km/h 37 % 0 in /  0.0 mm
16:19 93 °F /  33.9 °C 63 °F /  17.2 °C 29.9 in /  1013.8 hPa WSW 6.4 mph /  10.3 km/h 6.4 mph /  10.3 km/h 37 % 0 in /  0.0 mm
16:24 92.5 °F /  33.6 °C 62.4 °F /  16.9 °C 29.9 in /  1013.8 hPa SSW 5.8 mph /  9.3 km/h 5.8 mph /  9.3 km/h 37 % 0 in /  0.0 mm
16:29 91.9 °F /  33.3 °C 62.8 °F /  17.1 °C 29.9 in /  1013.8 hPa South 5.9 mph /  9.5 km/h 5.9 mph /  9.5 km/h 38 % 0 in /  0.0 mm
16:34 91.2 °F /  32.9 °C 62.8 °F /  17.1 °C 29.9 in /  1013.8 hPa SW 6.9 mph /  11.1 km/h 6.9 mph /  11.1 km/h 39 % 0 in /  0.0 mm
16:39 90.5 °F /  32.5 °C 62.2 °F /  16.8 °C 29.9 in /  1013.8 hPa SW 6.9 mph /  11.1 km/h 6.9 mph /  11.1 km/h 39 % 0 in /  0.0 mm
16:44 90.1 °F /  32.3 °C 61.9 °F /  16.6 °C 29.9 in /  1013.8 hPa South 8.1 mph /  13.0 km/h 8.1 mph /  13.0 km/h 39 % 0 in /  0.0 mm
16:49 89.4 °F /  31.9 °C 61.2 °F /  16.2 °C 29.9 in /  1013.8 hPa SW 8.1 mph /  13.0 km/h 8.1 mph /  13.0 km/h 39 % 0 in /  0.0 mm
16:54 88.5 °F /  31.4 °C 60.4 °F /  15.8 °C 29.9 in /  1013.8 hPa SW 8.1 mph /  13.0 km/h 8.1 mph /  13.0 km/h 39 % 0 in /  0.0 mm
16:59 88.7 °F /  31.5 °C 60.6 °F /  15.9 °C 29.9 in /  1013.8 hPa WSW 5.8 mph /  9.3 km/h 5.8 mph /  9.3 km/h 39 % 0 in /  0.0 mm
17:04 88.2 °F /  31.2 °C 60.1 °F /  15.6 °C 29.9 in /  1013.8 hPa SSW 5.8 mph /  9.3 km/h 5.8 mph /  9.3 km/h 39 % 0 in /  0.0 mm
17:09 87.6 °F /  30.9 °C 60.3 °F /  15.7 °C 29.9 in /  1013.8 hPa SW 5.8 mph /  9.3 km/h 5.8 mph /  9.3 km/h 40 % 0 in /  0.0 mm
17:14 87.3 °F /  30.7 °C 60.6 °F /  15.9 °C 29.9 in /  1013.8 hPa West 5.8 mph /  9.3 km/h 5.8 mph /  9.3 km/h 41 % 0 in /  0.0 mm
17:19 86.9 °F /  30.5 °C 60.4 °F /  15.8 °C 29.9 in /  1013.8 hPa WSW 6.9 mph /  11.1 km/h 6.9 mph /  11.1 km/h 41 % 0 in /  0.0 mm
17:24 86.4 °F /  30.2 °C 59.9 °F /  15.5 °C 29.9 in /  1013.8 hPa SW 5.8 mph /  9.3 km/h 5.8 mph /  9.3 km/h 41 % 0 in /  0.0 mm
17:29 86 °F /  30.0 °C 60.3 °F /  15.7 °C 29.9 in /  1013.8 hPa WSW 9.2 mph /  14.8 km/h 9.2 mph /  14.8 km/h 42 % 0 in /  0.0 mm
17:34 85.5 °F /  29.7 °C 60.4 °F /  15.8 °C 29.9 in /  1013.8 hPa SSW 6.9 mph /  11.1 km/h 6.9 mph /  11.1 km/h 43 % 0 in /  0.0 mm
17:39 85.3 °F /  29.6 °C 60.3 °F /  15.7 °C 29.9 in /  1013.8 hPa SW 4.3 mph /  6.9 km/h 4.3 mph /  6.9 km/h 43 % 0 in /  0.0 mm
17:44 84.9 °F /  29.4 °C 59.9 °F /  15.5 °C 29.9 in /  1013.8 hPa WSW 5.4 mph /  8.7 km/h 5.4 mph /  8.7 km/h 43 % 0 in /  0.0 mm
17:49 84.6 °F /  29.2 °C 60.3 °F /  15.7 °C 29.9 in /  1013.8 hPa SW 5.8 mph /  9.3 km/h 5.8 mph /  9.3 km/h 44 % 0 in /  0.0 mm
17:54 84.2 °F /  29.0 °C 59.9 °F /  15.5 °C 29.9 in /  1013.8 hPa SW 11.5 mph /  18.5 km/h 11.5 mph /  18.5 km/h 44 % 0 in /  0.0 mm
17:59 84 °F /  28.9 °C 61 °F /  16.1 °C 29.9 in /  1013.8 hPa SW 5.9 mph /  9.5 km/h 5.9 mph /  9.5 km/h 46 % 0 in /  0.0 mm
18:04 83.5 °F /  28.6 °C 61.2 °F /  16.2 °C 29.9 in /  1013.8 hPa SW 10.4 mph /  16.7 km/h 10.4 mph /  16.7 km/h 47 % 0 in /  0.0 mm
18:09 83.5 °F /  28.6 °C 61.2 °F /  16.2 °C 29.9 in /  1013.8 hPa WSW 5.8 mph /  9.3 km/h 5.8 mph /  9.3 km/h 47 % 0 in /  0.0 mm
18:14 83.1 °F /  28.4 °C 61.3 °F /  16.3 °C 29.9 in /  1013.8 hPa SW 5.8 mph /  9.3 km/h 5.8 mph /  9.3 km/h 48 % 0 in /  0.0 mm
18:19 83.1 °F /  28.4 °C 61.3 °F /  16.3 °C 29.9 in /  1013.8 hPa WSW 6.9 mph /  11.1 km/h 6.9 mph /  11.1 km/h 48 % 0 in /  0.0 mm
18:24 82.9 °F /  28.3 °C 61.2 °F /  16.2 °C 29.9 in /  1013.8 hPa SSW 4.6 mph /  7.4 km/h 4.6 mph /  7.4 km/h 48 % 0 in /  0.0 mm
18:29 82.9 °F /  28.3 °C 61.2 °F /  16.2 °C 29.9 in /  1013.8 hPa SW 5.8 mph /  9.3 km/h 5.8 mph /  9.3 km/h 48 % 0 in /  0.0 mm
18:34 82.9 °F /  28.3 °C 61.2 °F /  16.2 °C 29.9 in /  1013.8 hPa SW 4.6 mph /  7.4 km/h 4.6 mph /  7.4 km/h 48 % 0 in /  0.0 mm
18:39 82.9 °F /  28.3 °C 61.2 °F /  16.2 °C 29.9 in /  1013.8 hPa WSW 9.2 mph /  14.8 km/h 9.2 mph /  14.8 km/h 48 % 0 in /  0.0 mm
18:44 82.9 °F /  28.3 °C 61.2 °F /  16.2 °C 29.9 in /  1012.8 hPa SW 5.8 mph /  9.3 km/h 5.8 mph /  9.3 km/h 48 % 0 in /  0.0 mm
18:49 82.8 °F /  28.2 °C 61.2 °F /  16.2 °C 29.9 in /  1012.8 hPa SW 6.9 mph /  11.1 km/h 6.9 mph /  11.1 km/h 48 % 0 in /  0.0 mm
18:54 82.9 °F /  28.3 °C 61.2 °F /  16.2 °C 29.9 in /  1012.8 hPa West 3.5 mph /  5.6 km/h 3.5 mph /  5.6 km/h 48 % 0 in /  0.0 mm
18:59 82.8 °F /  28.2 °C 61.2 °F /  16.2 °C 29.9 in /  1013.8 hPa SW 4.6 mph /  7.4 km/h 4.6 mph /  7.4 km/h 48 % 0 in /  0.0 mm
19:04 82.4 °F /  28.0 °C 60.6 °F /  15.9 °C 29.9 in /  1013.8 hPa SW 5.8 mph /  9.3 km/h 5.8 mph /  9.3 km/h 48 % 0 in /  0.0 mm
19:09 82.4 °F /  28.0 °C 60.6 °F /  15.9 °C 29.9 in /  1013.8 hPa WSW 6 mph /  9.7 km/h 6 mph /  9.7 km/h 48 % 0 in /  0.0 mm
19:14 82.4 °F /  28.0 °C 60.6 °F /  15.9 °C 29.9 in /  1013.8 hPa SW 4.6 mph /  7.4 km/h 4.6 mph /  7.4 km/h 48 % 0 in /  0.0 mm
19:19 82.6 °F /  28.1 °C 61 °F /  16.1 °C 29.9 in /  1013.8 hPa WSW 3.5 mph /  5.6 km/h 3.5 mph /  5.6 km/h 48 % 0 in /  0.0 mm
19:24 82.4 °F /  28.0 °C 60.1 °F /  15.6 °C 29.9 in /  1013.8 hPa WSW 4.6 mph /  7.4 km/h 4.6 mph /  7.4 km/h 47 % 0 in /  0.0 mm
19:29 82.6 °F /  28.1 °C 60.3 °F /  15.7 °C 29.9 in /  1013.8 hPa West 4.6 mph /  7.4 km/h 4.6 mph /  7.4 km/h 47 % 0 in /  0.0 mm
19:34 82.4 °F /  28.0 °C 60.1 °F /  15.6 °C 29.9 in /  1013.8 hPa West 2.9 mph /  4.7 km/h 2.9 mph /  4.7 km/h 47 % 0 in /  0.0 mm
19:39 82.4 °F /  28.0 °C 60.1 °F /  15.6 °C 29.9 in /  1013.8 hPa SW 3.3 mph /  5.3 km/h 3.3 mph /  5.3 km/h 47 % 0 in /  0.0 mm
19:44 82.4 °F /  28.0 °C 60.1 °F /  15.6 °C 29.9 in /  1013.8 hPa West 2.6 mph /  4.2 km/h 2.6 mph /  4.2 km/h 47 % 0 in /  0.0 mm
19:49 82 °F /  27.8 °C 59.7 °F /  15.4 °C 29.9 in /  1013.8 hPa West 2.3 mph /  3.7 km/h 2.3 mph /  3.7 km/h 47 % 0 in /  0.0 mm
19:54 82 °F /  27.8 °C 59.7 °F /  15.4 °C 29.9 in /  1013.8 hPa SSW 2.4 mph /  3.9 km/h 2.4 mph /  3.9 km/h 47 % 0 in /  0.0 mm
19:59 81.9 °F /  27.7 °C 60.3 °F /  15.7 °C 29.9 in /  1013.8 hPa SW 2.3 mph /  3.7 km/h 2.3 mph /  3.7 km/h 48 % 0 in /  0.0 mm
20:04 81.7 °F /  27.6 °C 60.1 °F /  15.6 °C 29.9 in /  1013.8 hPa SW 2.3 mph /  3.7 km/h 2.4 mph /  3.9 km/h 48 % 0 in /  0.0 mm
20:06 81.7 °F /  27.6 °C 60.1 °F /  15.6 °C 29.9 in /  1013.8 hPa WSW 2.3 mph /  3.7 km/h 2.3 mph /  3.7 km/h 48 % 0 in /  0.0 mm
20:11 81.7 °F /  27.6 °C 60.1 °F /  15.6 °C 29.9 in /  1013.8 hPa WSW 2.3 mph /  3.7 km/h 2.3 mph /  3.7 km/h 48 % 0 in /  0.0 mm
20:16 81.7 °F /  27.6 °C 60.1 °F /  15.6 °C 29.9 in /  1013.8 hPa SW 2 mph /  3.2 km/h 2 mph /  3.2 km/h 48 % 0 in /  0.0 mm
20:21 81.5 °F /  27.5 °C 59.9 °F /  15.5 °C 29.9 in /  1013.8 hPa SW 2.3 mph /  3.7 km/h 2.3 mph /  3.7 km/h 48 % 0 in /  0.0 mm
20:26 81.3 °F /  27.4 °C 59.7 °F /  15.4 °C 29.9 in /  1013.8 hPa WSW 2.3 mph /  3.7 km/h 2.3 mph /  3.7 km/h 48 % 0 in /  0.0 mm
20:31 81.3 °F /  27.4 °C 59.7 °F /  15.4 °C 29.9 in /  1013.8 hPa SW 2.6 mph /  4.2 km/h 2.6 mph /  4.2 km/h 48 % 0 in /  0.0 mm
20:36 81.1 °F /  27.3 °C 59.5 °F /  15.3 °C 29.9 in /  1013.8 hPa WSW 2.3 mph /  3.7 km/h 2.3 mph /  3.7 km/h 48 % 0 in /  0.0 mm
20:41 81.1 °F /  27.3 °C 59.5 °F /  15.3 °C 29.9 in /  1013.8 hPa SW 2.3 mph /  3.7 km/h 2.3 mph /  3.7 km/h 48 % 0 in /  0.0 mm
20:46 80.8 °F /  27.1 °C 59.7 °F /  15.4 °C 29.9 in /  1013.8 hPa South 1.4 mph /  2.3 km/h 1.4 mph /  2.3 km/h 49 % 0 in /  0.0 mm
20:51 80.6 °F /  27.0 °C 59.7 °F /  15.4 °C 29.9 in /  1013.8 hPa WSW 3.5 mph /  5.6 km/h 3.5 mph /  5.6 km/h 49 % 0 in /  0.0 mm
20:56 80.4 °F /  26.9 °C 60.1 °F /  15.6 °C 29.9 in /  1013.8 hPa SW 3.5 mph /  5.6 km/h 3.5 mph /  5.6 km/h 50 % 0 in /  0.0 mm
21:01 80.2 °F /  26.8 °C 59.9 °F /  15.5 °C 29.9 in /  1013.8 hPa SW 3.5 mph /  5.6 km/h 3.5 mph /  5.6 km/h 50 % 0 in /  0.0 mm
21:06 80.1 °F /  26.7 °C 60.3 °F /  15.7 °C 29.9 in /  1013.8 hPa WSW 3.5 mph /  5.6 km/h 3.5 mph /  5.6 km/h 51 % 0 in /  0.0 mm
21:11 79.9 °F /  26.6 °C 60.1 °F /  15.6 °C 29.9 in /  1013.8 hPa SW 2.3 mph /  3.7 km/h 2.3 mph /  3.7 km/h 51 % 0 in /  0.0 mm
21:16 79.5 °F /  26.4 °C 59.7 °F /  15.4 °C 29.9 in /  1013.8 hPa SSW 3.5 mph /  5.6 km/h 3.5 mph /  5.6 km/h 51 % 0 in /  0.0 mm
21:21 79.3 °F /  26.3 °C 60.3 °F /  15.7 °C 29.9 in /  1013.8 hPa SW 2.3 mph /  3.7 km/h 2.3 mph /  3.7 km/h 52 % 0 in /  0.0 mm
21:26 79.2 °F /  26.2 °C 60.1 °F /  15.6 °C 29.9 in /  1013.8 hPa SW 4.6 mph /  7.4 km/h 4.6 mph /  7.4 km/h 52 % 0 in /  0.0 mm
21:31 79 °F /  26.1 °C 60.4 °F /  15.8 °C 29.9 in /  1013.8 hPa SSW 3.3 mph /  5.3 km/h 3.3 mph /  5.3 km/h 53 % 0 in /  0.0 mm
21:36 78.8 °F /  26.0 °C 60.3 °F /  15.7 °C 29.9 in /  1013.8 hPa SW 3.5 mph /  5.6 km/h 3.5 mph /  5.6 km/h 53 % 0 in /  0.0 mm
21:41 78.6 °F /  25.9 °C 60.1 °F /  15.6 °C 29.9 in /  1013.8 hPa WSW 2.3 mph /  3.7 km/h 2.3 mph /  3.7 km/h 53 % 0 in /  0.0 mm
21:46 78.3 °F /  25.7 °C 59.7 °F /  15.4 °C 29.9 in /  1013.8 hPa SW 3.8 mph /  6.1 km/h 3.8 mph /  6.1 km/h 53 % 0 in /  0.0 mm
21:51 77.9 °F /  25.5 °C 59.9 °F /  15.5 °C 29.9 in /  1013.8 hPa WSW 4.6 mph /  7.4 km/h 4.6 mph /  7.4 km/h 54 % 0 in /  0.0 mm
21:56 77.9 °F /  25.5 °C 59.9 °F /  15.5 °C 29.9 in /  1013.8 hPa WNW 4.6 mph /  7.4 km/h 4.6 mph /  7.4 km/h 54 % 0 in /  0.0 mm
22:01 77.7 °F /  25.4 °C 60.3 °F /  15.7 °C 30 in /  1014.8 hPa SW 3.5 mph /  5.6 km/h 3.5 mph /  5.6 km/h 55 % 0 in /  0.0 mm
22:06 77.7 °F /  25.4 °C 60.3 °F /  15.7 °C 30 in /  1014.8 hPa West 4.6 mph /  7.4 km/h 4.6 mph /  7.4 km/h 55 % 0 in /  0.0 mm
22:11 77.5 °F /  25.3 °C 60.1 °F /  15.6 °C 30 in /  1014.8 hPa WSW 4 mph /  6.4 km/h 4 mph /  6.4 km/h 55 % 0 in /  0.0 mm
22:16 77.4 °F /  25.2 °C 59.9 °F /  15.5 °C 30 in /  1014.8 hPa West 4.6 mph /  7.4 km/h 4.6 mph /  7.4 km/h 55 % 0 in /  0.0 mm
22:21 77.2 °F /  25.1 °C 59.7 °F /  15.4 °C 30 in /  1014.8 hPa WSW 3.8 mph /  6.1 km/h 3.8 mph /  6.1 km/h 55 % 0 in /  0.0 mm
22:26 77.2 °F /  25.1 °C 59.7 °F /  15.4 °C 30 in /  1014.8 hPa SW 3.5 mph /  5.6 km/h 3.5 mph /  5.6 km/h 55 % 0 in /  0.0 mm
22:31 77 °F /  25.0 °C 60.1 °F /  15.6 °C 30 in /  1014.8 hPa SW 2.3 mph /  3.7 km/h 2.3 mph /  3.7 km/h 56 % 0 in /  0.0 mm
22:36 76.8 °F /  24.9 °C 59.9 °F /  15.5 °C 30 in /  1014.8 hPa WSW 4.6 mph /  7.4 km/h 4.6 mph /  7.4 km/h 56 % 0 in /  0.0 mm
22:41 76.6 °F /  24.8 °C 60.3 °F /  15.7 °C 30 in /  1014.8 hPa WSW 1.6 mph /  2.6 km/h 1.6 mph /  2.6 km/h 57 % 0 in /  0.0 mm
22:46 76.5 °F /  24.7 °C 60.1 °F /  15.6 °C 30 in /  1014.8 hPa SW 2.6 mph /  4.2 km/h 2.6 mph /  4.2 km/h 57 % 0 in /  0.0 mm
22:51 76.5 °F /  24.7 °C 59.5 °F /  15.3 °C 30 in /  1014.8 hPa West 3.3 mph /  5.3 km/h 3.3 mph /  5.3 km/h 56 % 0 in /  0.0 mm
22:56 76.3 °F /  24.6 °C 59.4 °F /  15.2 °C 30 in /  1014.8 hPa SW 3.8 mph /  6.1 km/h 3.8 mph /  6.1 km/h 56 % 0 in /  0.0 mm
23:01 76.3 °F /  24.6 °C 59.4 °F /  15.2 °C 30 in /  1014.8 hPa SW 2.4 mph /  3.9 km/h 2.4 mph /  3.9 km/h 56 % 0 in /  0.0 mm
23:06 76.1 °F /  24.5 °C 59.7 °F /  15.4 °C 30 in /  1014.8 hPa SW 2.3 mph /  3.7 km/h 2.3 mph /  3.7 km/h 57 % 0 in /  0.0 mm
23:11 75.9 °F /  24.4 °C 59.2 °F /  15.1 °C 30 in /  1014.8 hPa WSW 2.3 mph /  3.7 km/h 2.3 mph /  3.7 km/h 56 % 0 in /  0.0 mm
23:16 75.9 °F /  24.4 °C 59.2 °F /  15.1 °C 30 in /  1015.8 hPa West 3.6 mph /  5.8 km/h 3.6 mph /  5.8 km/h 56 % 0 in /  0.0 mm
23:21 75.9 °F /  24.4 °C 59.2 °F /  15.1 °C 30 in /  1015.8 hPa WSW 2.6 mph /  4.2 km/h 2.6 mph /  4.2 km/h 56 % 0 in /  0.0 mm
23:26 75.7 °F /  24.3 °C 58.8 °F /  14.9 °C 30 in /  1015.8 hPa West 2.3 mph /  3.7 km/h 2.3 mph /  3.7 km/h 56 % 0 in /  0.0 mm
23:31 75.6 °F /  24.2 °C 59.4 °F /  15.2 °C 30 in /  1015.8 hPa WSW 2.3 mph /  3.7 km/h 2.3 mph /  3.7 km/h 57 % 0 in /  0.0 mm
23:36 75.4 °F /  24.1 °C 59.2 °F /  15.1 °C 30 in /  1015.8 hPa West 2.2 mph /  3.5 km/h 2.2 mph /  3.5 km/h 57 % 0 in /  0.0 mm
23:41 75.4 °F /  24.1 °C 59.2 °F /  15.1 °C 30 in /  1015.8 hPa WSW 1.4 mph /  2.3 km/h 1.4 mph /  2.3 km/h 57 % 0 in /  0.0 mm
23:46 75.4 °F /  24.1 °C 59.2 °F /  15.1 °C 30 in /  1015.8 hPa West 1.4 mph /  2.3 km/h 1.4 mph /  2.3 km/h 57 % 0 in /  0.0 mm
23:51 75.4 °F /  24.1 °C 58.6 °F /  14.8 °C 30 in /  1015.8 hPa West 2.3 mph /  3.7 km/h 2.3 mph /  3.7 km/h 56 % 0 in /  0.0 mm
23:56 75.4 °F /  24.1 °C 58.6 °F /  14.8 °C 30 in /  1015.8 hPa West 2.3 mph /  3.7 km/h 2.3 mph /  3.7 km/h 56 % 0 in /  0.0 mm
Meteo Sesrovires
Elogis d' Weather Underground - 3.5 mb

Guio original per  Jim McMurry - jmcmurry@mwt.net Adaptat per a la plantilla per  Wim van der Kuil - Leuven-Template.eu

Trobareu la nostra informacio del temps tambe a:

Weather Underground

AWEKAS